createdAt,value
2022-12-20T00:00:25.414Z,7.70
2022-12-20T00:01:46.004Z,8.80
2022-12-20T00:03:06.750Z,11.85
2022-12-20T00:04:27.527Z,11.48
2022-12-20T00:05:48.472Z,10.73
2022-12-20T00:07:08.768Z,8.38
2022-12-20T00:08:29.138Z,8.23
2022-12-20T00:09:49.783Z,10.25
2022-12-20T00:11:10.894Z,10.87
2022-12-20T00:12:31.657Z,8.15
2022-12-20T00:13:52.310Z,10.43
2022-12-20T00:15:12.824Z,13.30
2022-12-20T00:16:34.424Z,9.00
2022-12-20T00:17:55.029Z,8.75
2022-12-20T00:19:15.608Z,10.27
2022-12-20T00:20:37.233Z,10.43
2022-12-20T00:21:57.929Z,11.52
2022-12-20T00:23:18.714Z,10.73
2022-12-20T00:24:39.145Z,6.93
2022-12-20T00:26:03.854Z,13.10
2022-12-20T00:27:24.178Z,11.95
2022-12-20T00:28:45.262Z,10.48
2022-12-20T00:30:07.429Z,10.43
2022-12-20T00:31:30.950Z,11.52
2022-12-20T00:32:52.957Z,9.35
2022-12-20T00:34:13.398Z,10.00
2022-12-20T00:35:34.202Z,9.95
2022-12-20T00:36:54.689Z,9.43
2022-12-20T00:38:15.367Z,13.00
2022-12-20T00:39:36.073Z,9.48
2022-12-20T00:41:00.732Z,11.18
2022-12-20T00:42:21.037Z,11.70
2022-12-20T00:43:42.063Z,14.87
2022-12-20T00:45:03.452Z,11.25
2022-12-20T00:46:24.444Z,13.45
2022-12-20T00:47:45.140Z,10.35
2022-12-20T00:49:06.971Z,12.10
2022-12-20T00:50:27.857Z,13.23
2022-12-20T00:51:48.665Z,9.02
2022-12-20T00:53:09.419Z,10.07
2022-12-20T00:54:30.008Z,10.00
2022-12-20T00:55:50.834Z,15.80
2022-12-20T00:57:11.418Z,10.83
2022-12-20T00:58:32.686Z,13.23
2022-12-20T00:59:53.249Z,8.52
2022-12-20T01:01:17.896Z,11.68
2022-12-20T01:02:38.804Z,15.07
2022-12-20T01:03:59.724Z,16.25
2022-12-20T01:05:21.627Z,11.88
2022-12-20T01:06:42.145Z,12.45
2022-12-20T01:08:02.898Z,13.10
2022-12-20T01:09:23.427Z,11.13
2022-12-20T01:10:43.914Z,12.10
2022-12-20T01:12:04.620Z,12.00
2022-12-20T01:13:25.735Z,12.93
2022-12-20T01:14:46.031Z,12.90
2022-12-20T01:16:07.790Z,13.68
2022-12-20T01:17:28.265Z,8.73
2022-12-20T01:18:49.491Z,13.73
2022-12-20T01:21:33.001Z,10.70
2022-12-20T01:22:53.544Z,15.10
2022-12-20T01:24:15.314Z,11.83
2022-12-20T01:25:35.568Z,11.43
2022-12-20T01:26:56.349Z,11.45
2022-12-20T01:28:16.876Z,9.88
2022-12-20T01:29:37.697Z,13.38
2022-12-20T01:30:58.197Z,8.32
2022-12-20T01:32:18.533Z,12.27
2022-12-20T01:33:39.172Z,11.35
2022-12-20T01:34:59.872Z,11.23
2022-12-20T01:36:22.792Z,17.05
2022-12-20T01:37:44.803Z,11.13
2022-12-20T01:39:07.630Z,11.95
2022-12-20T01:40:28.320Z,11.73
2022-12-20T01:41:49.360Z,10.27
2022-12-20T01:43:12.638Z,15.68
2022-12-20T01:44:53.228Z,12.57
2022-12-20T01:46:13.758Z,10.73
2022-12-20T01:47:34.994Z,12.68
2022-12-20T01:49:00.072Z,12.70
2022-12-20T01:50:20.262Z,17.35
2022-12-20T01:51:43.878Z,11.95
2022-12-20T01:53:07.625Z,11.80
2022-12-20T01:54:31.847Z,14.18
2022-12-20T01:55:52.753Z,10.75
2022-12-20T01:57:16.532Z,13.63
2022-12-20T01:58:38.413Z,11.93
2022-12-20T01:59:59.729Z,13.80
2022-12-20T02:01:21.707Z,10.82
2022-12-20T02:02:42.713Z,12.98
2022-12-20T02:04:03.571Z,16.05
2022-12-20T02:05:24.397Z,11.90
2022-12-20T02:06:44.995Z,13.75
2022-12-20T02:08:07.725Z,13.20
2022-12-20T02:09:28.906Z,9.35
2022-12-20T02:11:01.514Z,10.57
2022-12-20T02:12:23.673Z,12.88
2022-12-20T02:13:50.149Z,11.98
2022-12-20T02:15:24.614Z,12.10
2022-12-20T02:16:51.369Z,11.80
2022-12-20T02:18:21.285Z,13.07
2022-12-20T02:20:11.860Z,18.75
2022-12-20T02:21:34.452Z,11.73
2022-12-20T02:23:11.880Z,11.68
2022-12-20T02:24:54.334Z,10.77
2022-12-20T02:26:38.629Z,13.10
2022-12-20T02:28:01.944Z,12.32
2022-12-20T02:29:26.663Z,11.18
2022-12-20T02:30:49.578Z,10.85
2022-12-20T02:32:16.569Z,16.20
2022-12-20T02:33:37.466Z,9.40
2022-12-20T02:34:58.059Z,10.80
2022-12-20T02:36:18.921Z,13.75
2022-12-20T02:37:48.173Z,13.25
2022-12-20T02:39:10.036Z,9.18
2022-12-20T02:41:54.419Z,13.75
2022-12-20T02:43:15.121Z,12.77
2022-12-20T02:44:39.650Z,10.48
2022-12-20T02:46:02.602Z,10.88
2022-12-20T02:47:27.506Z,12.68
2022-12-20T02:48:50.572Z,12.02
2022-12-20T02:50:12.043Z,14.40
2022-12-20T02:51:32.991Z,11.75
2022-12-20T02:52:53.867Z,12.30
2022-12-20T02:54:15.075Z,9.67
2022-12-20T02:55:42.139Z,9.63
2022-12-20T02:57:06.507Z,12.52
2022-12-20T02:58:32.189Z,14.07
2022-12-20T03:00:00.592Z,12.07
2022-12-20T03:01:24.145Z,14.68
2022-12-20T03:02:45.837Z,10.88
2022-12-20T03:04:07.031Z,11.63
2022-12-20T03:05:28.311Z,11.25
2022-12-20T03:07:00.752Z,14.18
2022-12-20T03:08:22.089Z,12.50
2022-12-20T03:09:44.508Z,12.13
2022-12-20T03:11:05.426Z,15.40
2022-12-20T03:12:25.829Z,17.27
2022-12-20T03:13:46.473Z,12.82
2022-12-20T03:15:07.800Z,12.45
2022-12-20T03:17:50.440Z,12.32
2022-12-20T03:19:11.092Z,10.00
2022-12-20T03:20:32.174Z,9.40
2022-12-20T03:21:52.933Z,11.35
2022-12-20T03:23:13.469Z,11.18
2022-12-20T03:24:34.044Z,8.88
2022-12-20T03:25:54.561Z,9.70
2022-12-20T03:27:15.284Z,9.68
2022-12-20T03:28:36.000Z,8.48
2022-12-20T03:29:56.663Z,10.38
2022-12-20T03:31:17.278Z,12.15
2022-12-20T03:32:38.961Z,12.50
2022-12-20T03:33:59.576Z,9.57
2022-12-20T03:35:20.206Z,10.13
2022-12-20T03:36:40.837Z,9.75
2022-12-20T03:38:01.574Z,8.30
2022-12-20T03:39:22.348Z,14.32
2022-12-20T03:40:42.534Z,8.35
2022-12-20T03:42:03.171Z,9.07
2022-12-20T03:43:23.960Z,11.95
2022-12-20T03:44:44.492Z,9.48
2022-12-20T03:46:05.205Z,12.07
2022-12-20T03:47:25.664Z,15.35
2022-12-20T03:48:47.584Z,13.70
2022-12-20T03:50:10.456Z,8.52
2022-12-20T03:51:31.179Z,13.02
2022-12-20T03:52:51.744Z,12.63
2022-12-20T03:54:12.329Z,12.95
2022-12-20T03:55:32.909Z,11.05
2022-12-20T03:56:53.679Z,8.38
2022-12-20T03:58:14.410Z,8.95
2022-12-20T03:59:35.364Z,10.02
2022-12-20T04:00:57.124Z,9.73
2022-12-20T04:02:17.771Z,9.07
2022-12-20T04:03:38.524Z,9.02
2022-12-20T04:05:00.679Z,11.82
2022-12-20T04:06:21.944Z,8.02
2022-12-20T04:07:42.569Z,9.30
2022-12-20T04:09:03.081Z,9.68
2022-12-20T04:10:23.623Z,9.63
2022-12-20T04:11:44.200Z,11.38
2022-12-20T04:13:04.990Z,11.48
2022-12-20T04:14:25.575Z,9.23
2022-12-20T04:15:46.172Z,13.27
2022-12-20T04:17:06.788Z,10.65
2022-12-20T04:18:27.298Z,8.25
2022-12-20T04:19:47.621Z,12.82
2022-12-20T04:21:10.513Z,11.38
2022-12-20T04:22:31.238Z,12.25
2022-12-20T04:23:51.639Z,10.85
2022-12-20T04:25:12.109Z,16.42
2022-12-20T04:26:32.889Z,9.65
2022-12-20T04:27:53.609Z,8.43
2022-12-20T04:29:14.302Z,11.27
2022-12-20T04:30:34.455Z,13.73
2022-12-20T04:31:54.784Z,10.13
2022-12-20T04:33:15.507Z,11.15
2022-12-20T04:34:36.083Z,10.60
2022-12-20T04:35:56.733Z,14.43
2022-12-20T04:37:19.157Z,10.10
2022-12-20T04:38:39.501Z,11.40
2022-12-20T04:40:00.039Z,15.30
2022-12-20T04:41:20.544Z,11.75
2022-12-20T04:42:41.195Z,10.55
2022-12-20T04:44:01.820Z,9.73
2022-12-20T04:45:22.486Z,8.98
2022-12-20T04:46:43.410Z,9.45
2022-12-20T04:48:28.501Z,10.70
2022-12-20T04:49:44.945Z,10.95
2022-12-20T04:51:05.720Z,11.23
2022-12-20T04:52:27.399Z,10.33
2022-12-20T04:53:47.839Z,9.93
2022-12-20T04:55:09.398Z,9.30
2022-12-20T04:56:29.720Z,9.20
2022-12-20T04:57:50.945Z,14.60
2022-12-20T04:59:11.582Z,12.07
2022-12-20T05:00:32.220Z,12.68
2022-12-20T05:01:52.896Z,11.75
2022-12-20T05:03:13.667Z,7.38
2022-12-20T05:04:37.499Z,10.00
2022-12-20T05:05:58.724Z,9.45
2022-12-20T05:07:19.303Z,10.20
2022-12-20T05:08:41.316Z,7.82
2022-12-20T05:10:01.829Z,9.85
2022-12-20T05:11:22.518Z,10.45
2022-12-20T05:12:43.232Z,12.15
2022-12-20T05:14:03.774Z,12.18
2022-12-20T05:15:24.517Z,9.02
2022-12-20T05:16:45.443Z,8.38
2022-12-20T05:18:05.893Z,11.80
2022-12-20T05:19:26.517Z,9.68
2022-12-20T05:20:47.768Z,12.55
2022-12-20T05:22:09.760Z,9.13
2022-12-20T05:23:30.421Z,9.02
2022-12-20T05:24:52.126Z,10.10
2022-12-20T05:26:12.688Z,12.63
2022-12-20T05:27:33.297Z,13.57
2022-12-20T05:28:54.157Z,9.13
2022-12-20T05:30:14.761Z,8.15
2022-12-20T05:31:35.198Z,11.35
2022-12-20T05:32:55.852Z,10.90
2022-12-20T05:34:16.645Z,10.70
2022-12-20T05:35:37.341Z,10.27
2022-12-20T05:36:57.998Z,14.85
2022-12-20T05:38:18.599Z,13.80
2022-12-20T05:39:38.994Z,12.02
2022-12-20T05:41:03.832Z,13.95
2022-12-20T05:42:24.461Z,11.63
2022-12-20T05:43:44.704Z,11.05
2022-12-20T05:45:06.367Z,10.50
2022-12-20T05:47:48.186Z,11.75
2022-12-20T05:50:29.019Z,14.43
2022-12-20T05:51:49.904Z,12.48
2022-12-20T05:53:12.082Z,15.45
2022-12-20T05:54:32.697Z,13.55
2022-12-20T05:55:54.657Z,11.82
2022-12-20T05:57:16.681Z,10.18
2022-12-20T05:58:37.574Z,13.82
2022-12-20T05:59:57.985Z,12.50
2022-12-20T06:01:18.636Z,8.52
2022-12-20T06:02:39.446Z,10.30
2022-12-20T06:04:00.658Z,8.63
2022-12-20T06:05:21.249Z,13.15
2022-12-20T06:06:41.966Z,9.20
2022-12-20T06:08:02.744Z,13.67
2022-12-20T06:09:23.448Z,12.02
2022-12-20T06:10:44.043Z,9.05
2022-12-20T06:12:05.184Z,12.02
2022-12-20T06:13:27.104Z,8.30
2022-12-20T06:14:47.963Z,8.27
2022-12-20T06:16:08.621Z,13.23
2022-12-20T06:17:29.060Z,11.82
2022-12-20T06:18:49.813Z,9.80
2022-12-20T06:20:10.888Z,13.32
2022-12-20T06:21:31.562Z,12.18
2022-12-20T06:22:52.452Z,11.93
2022-12-20T06:24:12.950Z,13.82
2022-12-20T06:25:33.789Z,10.10
2022-12-20T06:26:54.546Z,9.05
2022-12-20T06:28:15.013Z,11.75
2022-12-20T06:29:37.151Z,10.95
2022-12-20T06:30:58.348Z,14.65
2022-12-20T06:32:19.964Z,9.90
2022-12-20T06:33:40.372Z,8.77
2022-12-20T06:35:01.016Z,8.60
2022-12-20T06:36:21.764Z,13.25
2022-12-20T06:37:44.097Z,8.45
2022-12-20T06:39:09.490Z,9.00
2022-12-20T06:40:30.257Z,9.82
2022-12-20T06:41:51.058Z,13.95
2022-12-20T06:43:11.827Z,10.57
2022-12-20T06:44:32.410Z,13.65
2022-12-20T06:45:54.820Z,12.60
2022-12-20T06:47:17.657Z,8.27
2022-12-20T06:48:38.502Z,10.68
2022-12-20T06:49:59.183Z,14.63
2022-12-20T06:51:19.770Z,9.68
2022-12-20T06:52:40.422Z,10.23
2022-12-20T06:54:01.043Z,9.23
2022-12-20T06:55:21.803Z,8.82
2022-12-20T06:56:42.679Z,14.25
2022-12-20T06:58:03.878Z,9.50
2022-12-20T06:59:24.331Z,8.95
2022-12-20T07:00:46.752Z,9.32
2022-12-20T07:02:10.187Z,10.45
2022-12-20T07:03:31.349Z,8.98
2022-12-20T07:04:52.154Z,14.27
2022-12-20T07:06:12.526Z,8.95
2022-12-20T07:07:37.258Z,8.32
2022-12-20T07:09:01.268Z,10.90
2022-12-20T07:10:21.887Z,6.30
2022-12-20T07:11:43.332Z,7.25
2022-12-20T07:13:04.411Z,11.30
2022-12-20T07:14:25.246Z,7.57
2022-12-20T07:15:46.672Z,7.38
2022-12-20T07:17:08.668Z,9.18
2022-12-20T07:18:29.393Z,10.05
2022-12-20T07:19:51.177Z,10.85
2022-12-20T07:21:11.682Z,9.45
2022-12-20T07:22:32.092Z,7.45
2022-12-20T07:23:52.850Z,8.88
2022-12-20T07:25:13.712Z,10.13
2022-12-20T07:26:34.259Z,12.77
2022-12-20T07:27:54.754Z,10.20
2022-12-20T07:29:16.284Z,13.45
2022-12-20T07:30:37.279Z,13.98
2022-12-20T07:31:57.837Z,8.75
2022-12-20T07:33:20.083Z,13.30
2022-12-20T07:34:40.806Z,13.82
2022-12-20T07:36:02.643Z,6.22
2022-12-20T07:37:23.978Z,16.02
2022-12-20T07:38:44.608Z,10.02
2022-12-20T07:40:06.612Z,10.57
2022-12-20T07:41:27.224Z,14.90
2022-12-20T07:42:49.078Z,7.20
2022-12-20T07:44:09.890Z,11.63
2022-12-20T07:45:30.435Z,11.05
2022-12-20T07:46:51.259Z,11.95
2022-12-20T07:48:16.342Z,15.75
2022-12-20T07:49:41.622Z,9.98
2022-12-20T07:51:04.784Z,9.00
2022-12-20T07:52:27.507Z,12.27
2022-12-20T07:53:50.276Z,12.90
2022-12-20T07:55:11.696Z,10.60
2022-12-20T07:56:37.455Z,10.73
2022-12-20T07:58:04.100Z,14.68
2022-12-20T07:59:28.136Z,9.88
2022-12-20T08:00:49.948Z,11.52
2022-12-20T08:02:14.442Z,12.13
2022-12-20T08:03:38.645Z,11.57
2022-12-20T08:05:01.235Z,10.85
2022-12-20T08:06:21.684Z,9.90
2022-12-20T08:07:43.329Z,11.10
2022-12-20T08:09:05.388Z,12.38
2022-12-20T08:10:26.643Z,11.40
2022-12-20T08:11:49.074Z,12.13
2022-12-20T08:13:09.865Z,15.32
2022-12-20T08:14:30.574Z,8.80
2022-12-20T08:15:51.408Z,7.40
2022-12-20T08:17:11.901Z,10.88
2022-12-20T08:18:32.754Z,12.35
2022-12-20T08:19:53.277Z,15.38
2022-12-20T08:21:15.303Z,10.50
2022-12-20T08:22:36.780Z,11.10
2022-12-20T08:23:57.323Z,11.07
2022-12-20T08:25:17.839Z,8.38
2022-12-20T08:26:38.678Z,9.43
2022-12-20T08:27:59.290Z,11.05
2022-12-20T08:29:20.242Z,10.57
2022-12-20T08:30:40.790Z,10.63
2022-12-20T08:32:01.358Z,9.30
2022-12-20T08:33:21.814Z,14.52
2022-12-20T08:34:42.289Z,12.80
2022-12-20T08:36:05.580Z,14.45
2022-12-20T08:37:27.325Z,13.85
2022-12-20T08:38:48.065Z,17.05
2022-12-20T08:40:09.693Z,8.77
2022-12-20T08:41:30.216Z,9.45
2022-12-20T08:42:50.821Z,10.25
2022-12-20T08:44:11.724Z,13.10
2022-12-20T08:45:32.111Z,9.77
2022-12-20T08:46:52.399Z,9.95
2022-12-20T08:48:13.117Z,10.35
2022-12-20T08:49:33.684Z,10.80
2022-12-20T08:50:55.794Z,8.20
2022-12-20T08:52:16.359Z,11.18
2022-12-20T08:53:38.743Z,15.38
2022-12-20T08:55:01.498Z,7.20
2022-12-20T08:56:22.729Z,13.93
2022-12-20T08:57:43.295Z,13.60
2022-12-20T08:59:04.147Z,12.30
2022-12-20T09:00:25.157Z,12.77
2022-12-20T09:01:45.826Z,13.80
2022-12-20T09:03:06.960Z,16.50
2022-12-20T09:04:28.234Z,10.93
2022-12-20T09:05:49.243Z,12.02
2022-12-20T09:07:09.992Z,11.30
2022-12-20T09:08:30.424Z,15.02
2022-12-20T09:09:52.181Z,13.93
2022-12-20T09:11:14.069Z,14.32
2022-12-20T09:12:36.668Z,15.75
2022-12-20T09:13:58.261Z,15.00
2022-12-20T09:15:18.625Z,15.55
2022-12-20T09:16:39.223Z,14.17
2022-12-20T09:17:59.639Z,11.45
2022-12-20T09:19:20.413Z,13.60
2022-12-20T09:20:43.104Z,10.80
2022-12-20T09:22:03.572Z,11.85
2022-12-20T09:23:24.094Z,17.67
2022-12-20T09:24:44.922Z,11.57
2022-12-20T09:26:08.545Z,13.82
2022-12-20T09:27:28.971Z,13.88
2022-12-20T09:28:50.259Z,13.48
2022-12-20T09:30:11.521Z,12.43
2022-12-20T09:32:52.935Z,15.98
2022-12-20T09:34:13.462Z,10.77
2022-12-20T09:35:34.176Z,11.77
2022-12-20T09:36:54.690Z,13.10
2022-12-20T09:38:15.263Z,14.80
2022-12-20T09:39:35.899Z,17.03
2022-12-20T09:40:58.659Z,13.57
2022-12-20T09:42:22.861Z,17.83
2022-12-20T09:43:43.629Z,19.75
2022-12-20T09:45:06.428Z,11.93
2022-12-20T09:46:28.280Z,14.80
2022-12-20T09:47:50.067Z,16.27
2022-12-20T09:49:12.672Z,14.00
2022-12-20T09:50:41.774Z,15.25
2022-12-20T09:52:25.229Z,12.15
2022-12-20T09:53:53.817Z,14.00
2022-12-20T09:55:20.917Z,16.10
2022-12-20T09:56:44.281Z,12.15
2022-12-20T09:58:19.142Z,13.63
2022-12-20T09:59:45.936Z,18.33
2022-12-20T10:01:21.427Z,12.45
2022-12-20T10:03:09.366Z,20.50
2022-12-20T10:04:28.167Z,12.85
2022-12-20T10:05:52.472Z,15.85
2022-12-20T10:07:22.561Z,16.25
2022-12-20T10:08:50.714Z,12.15
2022-12-20T10:10:34.012Z,19.27
2022-12-20T10:12:01.664Z,18.27
2022-12-20T10:13:36.509Z,14.52
2022-12-20T10:15:09.309Z,15.55
2022-12-20T10:16:40.461Z,16.55
2022-12-20T10:18:17.776Z,15.40
2022-12-20T10:20:13.756Z,15.38
2022-12-20T10:21:40.617Z,18.15
2022-12-20T10:23:05.012Z,16.23
2022-12-20T10:24:29.214Z,18.52
2022-12-20T10:25:50.618Z,18.83
2022-12-20T10:27:14.447Z,18.25
2022-12-20T10:28:36.629Z,15.68
2022-12-20T10:29:57.451Z,17.83
2022-12-20T10:31:19.057Z,15.30
2022-12-20T10:32:39.697Z,14.48
2022-12-20T10:34:00.280Z,18.40
2022-12-20T10:35:30.121Z,23.05
2022-12-20T10:37:11.281Z,11.93
2022-12-20T10:38:44.031Z,14.05
2022-12-20T10:40:07.844Z,15.77
2022-12-20T10:41:30.520Z,12.98
2022-12-20T10:42:51.030Z,15.07
2022-12-20T10:44:19.515Z,15.18
2022-12-20T10:45:42.345Z,18.73
2022-12-20T10:47:02.737Z,18.85
2022-12-20T10:48:30.006Z,16.08
2022-12-20T10:49:50.463Z,15.98
2022-12-20T10:51:16.961Z,13.70
2022-12-20T10:52:37.734Z,17.58
2022-12-20T10:54:00.279Z,24.27
2022-12-20T10:55:35.163Z,18.45
2022-12-20T10:56:58.201Z,17.33
2022-12-20T10:58:28.952Z,20.73
2022-12-20T10:59:52.760Z,17.80
2022-12-20T11:01:14.778Z,18.27
2022-12-20T11:02:41.724Z,19.88
2022-12-20T11:04:04.709Z,15.30
2022-12-20T11:05:25.726Z,14.93
2022-12-20T11:06:46.392Z,23.33
2022-12-20T11:09:57.482Z,17.98
2022-12-20T11:11:21.176Z,15.38
2022-12-20T11:12:53.038Z,22.17
2022-12-20T11:15:36.947Z,20.05
2022-12-20T11:16:59.364Z,20.50
2022-12-20T11:18:24.599Z,14.90
2022-12-20T11:20:15.965Z,19.10
2022-12-20T11:21:42.931Z,20.45
2022-12-20T11:23:13.131Z,22.13
2022-12-20T11:24:36.962Z,22.52
2022-12-20T11:26:13.646Z,20.45
2022-12-20T11:27:39.737Z,19.67
2022-12-20T11:29:10.828Z,19.63
2022-12-20T11:30:39.781Z,18.47
2022-12-20T11:32:07.528Z,22.55
2022-12-20T11:33:49.872Z,17.90
2022-12-20T11:38:09.276Z,18.23
2022-12-20T11:39:34.184Z,19.20
2022-12-20T11:40:58.513Z,15.52
2022-12-20T11:42:24.642Z,14.63
2022-12-20T11:44:25.228Z,16.80
2022-12-20T11:45:58.597Z,16.73
2022-12-20T11:47:33.264Z,19.92
2022-12-20T11:49:18.988Z,21.50
2022-12-20T11:50:58.756Z,15.93
2022-12-20T11:52:26.818Z,15.40
2022-12-20T11:53:52.755Z,18.02
2022-12-20T11:55:18.321Z,16.90
2022-12-20T11:56:44.586Z,16.02
2022-12-20T11:58:20.312Z,21.75
2022-12-20T11:59:44.504Z,18.70
2022-12-20T12:01:08.868Z,22.98
2022-12-20T12:02:35.333Z,22.05
2022-12-20T12:04:03.364Z,23.40
2022-12-20T12:05:28.449Z,18.35
2022-12-20T12:06:55.835Z,17.15
2022-12-20T12:08:18.652Z,20.58
2022-12-20T12:09:42.476Z,19.13
2022-12-20T12:11:25.459Z,19.23
2022-12-20T12:12:53.111Z,24.60
2022-12-20T12:14:18.178Z,20.50
2022-12-20T12:15:42.506Z,17.38
2022-12-20T12:17:09.555Z,21.25
2022-12-20T12:18:31.500Z,27.38
2022-12-20T12:19:56.427Z,19.60
2022-12-20T12:21:21.008Z,27.00
2022-12-20T12:22:42.684Z,24.15
2022-12-20T12:24:07.633Z,20.67
2022-12-20T12:25:28.240Z,19.30
2022-12-20T12:26:48.992Z,18.55
2022-12-20T12:28:11.202Z,18.27
2022-12-20T12:29:33.690Z,15.93
2022-12-20T12:30:59.476Z,22.20
2022-12-20T12:32:26.116Z,18.10
2022-12-20T12:34:07.692Z,22.95
2022-12-20T12:37:33.069Z,22.58
2022-12-20T12:39:30.241Z,21.13
2022-12-20T12:41:04.418Z,26.85
2022-12-20T12:42:49.140Z,25.77
2022-12-20T12:44:31.320Z,23.15
2022-12-20T12:45:55.253Z,30.48
2022-12-20T12:47:19.088Z,26.23
2022-12-20T12:48:43.706Z,26.30
2022-12-20T12:50:07.033Z,23.35
2022-12-20T12:51:30.139Z,20.05
2022-12-20T12:52:52.527Z,24.95
2022-12-20T12:54:17.995Z,25.13
2022-12-20T12:55:43.990Z,22.00
2022-12-20T12:57:07.564Z,20.02
2022-12-20T12:58:32.345Z,18.05
2022-12-20T12:59:53.200Z,18.98
2022-12-20T13:01:47.114Z,18.50
2022-12-20T13:03:15.124Z,24.42
2022-12-20T13:04:54.265Z,26.30
2022-12-20T13:07:03.946Z,20.95
2022-12-20T13:08:47.850Z,22.85
2022-12-20T13:10:41.574Z,20.25
2022-12-20T13:12:49.129Z,20.55
2022-12-20T13:14:38.872Z,23.25
2022-12-20T13:16:48.372Z,19.65
2022-12-20T13:18:23.329Z,21.63
2022-12-20T13:19:50.793Z,21.45
2022-12-20T13:21:32.920Z,20.20
2022-12-20T13:23:13.151Z,23.92
2022-12-20T13:24:37.840Z,19.02
2022-12-20T13:25:58.622Z,18.60
2022-12-20T13:27:24.496Z,21.63
2022-12-20T13:28:45.895Z,23.80
2022-12-20T13:30:27.427Z,25.35
2022-12-20T13:31:54.023Z,19.45
2022-12-20T13:33:20.446Z,25.02
2022-12-20T13:34:53.868Z,20.38
2022-12-20T13:36:32.107Z,25.40
2022-12-20T13:37:55.049Z,21.40
2022-12-20T13:39:34.445Z,19.17
2022-12-20T13:40:58.561Z,24.58
2022-12-20T13:42:30.976Z,22.60
2022-12-20T13:43:51.846Z,23.33
2022-12-20T13:45:13.678Z,21.60
2022-12-20T13:46:41.973Z,23.40
2022-12-20T13:48:10.797Z,21.77
2022-12-20T13:49:37.540Z,22.90
2022-12-20T13:50:58.269Z,24.15
2022-12-20T13:52:24.489Z,25.05
2022-12-20T13:53:52.081Z,31.80
2022-12-20T13:55:17.721Z,27.08
2022-12-20T13:56:45.116Z,33.25
2022-12-20T13:58:09.975Z,28.08
2022-12-20T13:59:38.720Z,26.80
2022-12-20T14:01:05.633Z,27.83
2022-12-20T14:02:33.026Z,33.15
2022-12-20T14:04:08.812Z,34.30
2022-12-20T14:05:36.945Z,28.77
2022-12-20T14:07:03.830Z,33.75
2022-12-20T14:08:27.983Z,26.02
2022-12-20T14:09:55.755Z,28.17
2022-12-20T14:11:17.732Z,26.05
2022-12-20T14:12:45.298Z,33.42
2022-12-20T14:14:13.075Z,29.13
2022-12-20T14:15:34.900Z,27.48
2022-12-20T14:16:55.244Z,35.75
2022-12-20T14:18:18.225Z,33.55
2022-12-20T14:19:38.989Z,30.58
2022-12-20T14:21:03.725Z,30.25
2022-12-20T14:22:24.122Z,29.25
2022-12-20T14:23:46.037Z,36.42
2022-12-20T14:25:08.307Z,34.05
2022-12-20T14:26:30.257Z,33.25
2022-12-20T14:27:50.587Z,32.85
2022-12-20T14:29:19.310Z,29.10
2022-12-20T14:30:42.704Z,31.00
2022-12-20T14:32:03.835Z,36.53
2022-12-20T14:33:29.858Z,31.55
2022-12-20T14:34:50.369Z,30.13
2022-12-20T14:36:20.077Z,26.30
2022-12-20T14:37:40.646Z,27.20
2022-12-20T14:39:01.262Z,28.30
2022-12-20T14:40:22.596Z,36.90
2022-12-20T14:41:44.531Z,32.63
2022-12-20T14:43:14.841Z,26.75
2022-12-20T14:44:35.702Z,36.83
2022-12-20T14:46:16.421Z,37.22
2022-12-20T14:47:37.689Z,30.58
2022-12-20T14:49:16.898Z,32.20
2022-12-20T14:50:38.640Z,30.55
2022-12-20T14:52:12.749Z,27.65
2022-12-20T14:53:35.943Z,26.73
2022-12-20T14:55:09.879Z,30.52
2022-12-20T14:56:32.344Z,32.50
2022-12-20T14:57:54.481Z,28.50
2022-12-20T14:59:16.866Z,31.70
2022-12-20T15:00:59.343Z,38.40
2022-12-20T15:02:33.592Z,28.08
2022-12-20T15:03:56.743Z,31.83
2022-12-20T15:05:50.561Z,33.08
2022-12-20T15:07:30.136Z,26.90
2022-12-20T15:08:50.525Z,33.88
2022-12-20T15:10:11.013Z,34.33
2022-12-20T15:11:31.991Z,33.78
2022-12-20T15:12:52.276Z,31.45
2022-12-20T15:14:26.045Z,36.60
2022-12-20T15:15:46.506Z,29.65
2022-12-20T15:17:11.257Z,36.42
2022-12-20T15:18:32.297Z,31.38
2022-12-20T15:19:52.988Z,36.25
2022-12-20T15:21:14.958Z,26.33
2022-12-20T15:22:36.985Z,30.77
2022-12-20T15:23:59.829Z,30.10
2022-12-20T15:25:20.149Z,35.30
2022-12-20T15:26:40.892Z,35.22
2022-12-20T15:28:01.505Z,27.58
2022-12-20T15:29:23.991Z,31.05
2022-12-20T15:30:46.516Z,35.10
2022-12-20T15:32:14.091Z,32.47
2022-12-20T15:33:35.051Z,28.50
2022-12-20T15:34:55.924Z,30.42
2022-12-20T15:36:19.206Z,33.25
2022-12-20T15:37:41.255Z,31.77
2022-12-20T15:39:17.132Z,33.50
2022-12-20T15:40:37.578Z,28.63
2022-12-20T15:42:00.515Z,32.30
2022-12-20T15:43:22.796Z,33.08
2022-12-20T15:44:43.892Z,37.30
2022-12-20T15:46:04.567Z,34.17
2022-12-20T15:47:24.893Z,38.72
2022-12-20T15:48:45.346Z,28.38
2022-12-20T15:50:07.403Z,33.13
2022-12-20T15:51:30.907Z,32.97
2022-12-20T15:52:52.856Z,34.10
2022-12-20T15:54:21.116Z,34.92
2022-12-20T15:55:41.718Z,33.92
2022-12-20T15:57:04.163Z,36.28
2022-12-20T15:58:25.243Z,33.35
2022-12-20T16:00:00.011Z,43.35
2022-12-20T16:01:24.488Z,41.17
2022-12-20T16:02:45.453Z,33.53
2022-12-20T16:04:07.110Z,34.63
2022-12-20T16:06:49.959Z,40.28
2022-12-20T16:08:11.558Z,33.30
2022-12-20T16:09:32.287Z,39.00
2022-12-20T16:10:52.771Z,33.38
2022-12-20T16:12:14.391Z,36.45
2022-12-20T16:13:34.926Z,36.15
2022-12-20T16:14:55.661Z,38.92
2022-12-20T16:16:18.210Z,35.93
2022-12-20T16:17:38.924Z,31.15
2022-12-20T16:18:59.458Z,30.45
2022-12-20T16:20:21.083Z,34.85
2022-12-20T16:21:43.776Z,32.70
2022-12-20T16:23:09.239Z,36.63
2022-12-20T16:24:31.259Z,38.05
2022-12-20T16:25:51.861Z,37.15
2022-12-20T16:27:12.369Z,36.27
2022-12-20T16:28:33.032Z,36.17
2022-12-20T16:29:53.509Z,37.70
2022-12-20T16:31:22.010Z,40.30
2022-12-20T16:32:42.661Z,36.65
2022-12-20T16:34:05.726Z,38.05
2022-12-20T16:35:29.017Z,39.17
2022-12-20T16:36:50.125Z,39.10
2022-12-20T16:38:10.423Z,42.58
2022-12-20T16:39:32.304Z,43.10
2022-12-20T16:40:52.953Z,41.83
2022-12-20T16:42:14.296Z,43.72
2022-12-20T16:43:38.776Z,42.45
2022-12-20T16:44:59.811Z,41.85
2022-12-20T16:46:22.478Z,44.58
2022-12-20T16:47:43.929Z,49.15
2022-12-20T16:49:05.103Z,39.63
2022-12-20T16:50:27.266Z,42.97
2022-12-20T16:51:49.205Z,39.13
2022-12-20T16:53:13.965Z,44.60
2022-12-20T16:54:36.064Z,42.40
2022-12-20T16:55:56.920Z,40.03
2022-12-20T16:57:18.078Z,42.08
2022-12-20T16:59:17.330Z,42.15
2022-12-20T17:00:22.986Z,43.42
2022-12-20T17:01:44.704Z,42.88
2022-12-20T17:03:06.052Z,43.65
2022-12-20T17:04:26.792Z,45.78
2022-12-20T17:05:47.338Z,43.63
2022-12-20T17:07:07.862Z,43.67
2022-12-20T17:10:11.689Z,42.55
2022-12-20T17:11:32.312Z,41.67
2022-12-20T17:12:53.070Z,40.05
2022-12-20T17:14:13.480Z,40.67
2022-12-20T17:15:33.916Z,37.92
2022-12-20T17:16:54.557Z,44.97
2022-12-20T17:18:15.373Z,45.72
2022-12-20T17:19:35.982Z,43.00
2022-12-20T17:20:56.534Z,40.95
2022-12-20T17:22:24.128Z,46.60
2022-12-20T17:23:44.975Z,42.45
2022-12-20T17:25:18.305Z,45.85
2022-12-20T17:26:38.922Z,40.63
2022-12-20T17:27:59.443Z,49.95
2022-12-20T17:29:19.927Z,42.47
2022-12-20T17:30:40.470Z,40.37
2022-12-20T17:32:01.346Z,38.53
2022-12-20T17:33:21.894Z,44.78
2022-12-20T17:34:42.584Z,40.10
2022-12-20T17:36:03.584Z,40.88
2022-12-20T17:37:24.162Z,47.33
2022-12-20T17:38:44.956Z,42.70
2022-12-20T17:40:09.604Z,43.53
2022-12-20T17:41:32.439Z,41.38
2022-12-20T17:42:53.577Z,39.70
2022-12-20T17:44:18.346Z,41.58
2022-12-20T17:45:39.113Z,41.75
2022-12-20T17:46:59.684Z,45.75
2022-12-20T17:48:20.203Z,42.35
2022-12-20T17:49:40.786Z,43.70
2022-12-20T17:51:01.811Z,44.72
2022-12-20T17:52:22.492Z,39.95
2022-12-20T17:53:43.194Z,43.47
2022-12-20T17:55:04.733Z,40.58
2022-12-20T17:57:47.781Z,40.50
2022-12-20T17:59:10.159Z,44.92
2022-12-20T18:00:38.597Z,45.10
2022-12-20T18:02:00.030Z,44.10
2022-12-20T18:04:01.470Z,47.75
2022-12-20T18:05:03.415Z,47.40
2022-12-20T18:06:25.025Z,41.05
2022-12-20T18:07:49.824Z,43.17
2022-12-20T18:09:14.079Z,41.22
2022-12-20T18:10:36.780Z,50.47
2022-12-20T18:11:58.319Z,46.80
2022-12-20T18:13:19.112Z,48.15
2022-12-20T18:14:39.895Z,51.45
2022-12-20T18:16:04.838Z,51.75
2022-12-20T18:17:25.494Z,55.13
2022-12-20T18:18:46.272Z,44.55
2022-12-20T18:20:08.783Z,64.43
2022-12-20T18:21:29.389Z,58.00
2022-12-20T18:22:50.158Z,56.78
2022-12-20T18:24:11.342Z,65.57
2022-12-20T18:25:31.832Z,66.60